»·PEaware :: N820JK KSMX-KBFL

N820JK :: KSMX-KBFL

FLIGHT INFORMATION

Flight Status: Arrived
Operator: Privately registered:
United States
More flights under this callsign
Pilot: Josh V. (16801)
Aircraft: CESSNA 172 SKYHAWK
(C172)
More flights by this aircraft type
Origin: KSMX Santa Maria Pub/Capt Hancock
United States
Destination: KBFL Meadows
United States
More flights between these airports :: More routes between these airports
Route: KSMX FLW KBFL
File this flight plan on PilotEdge
Remarks: CAT 5
Altitude:
(Current/Filed)
7,500ft
Speed:
(Current/Filed)
80kts
Departed: 30-Sep-17 09:47 AM
Arrived: 30-Sep-17 10:40 AM
Distance/Time
Traveled:
76nm/0:52
Distance/Time
To Go:
Arrived

Flight Plot

Page will automatically refresh every two minutes.


Map Options




Map Legend


Flown Route
Filed Route
Departure Airport
Arrival Airport
Navaid (VOR, NDB)
Fix

Horizontal Profiles

Position Reports

Time Latitude Longitude Heading Altitude Ground
Speed
30-Sep-17 09:46 34.893841 -120.443325 68 264ft 0kts
30-Sep-17 09:47 34.893841 -120.443323 68 264ft 0kts
30-Sep-17 09:48 34.894161 -120.445446 302 264ft 11kts
30-Sep-17 09:49 34.893476 -120.445727 182 264ft 0kts
30-Sep-17 09:50 34.893409 -120.445731 182 264ft 6kts
30-Sep-17 09:51 34.901947 -120.456740 316 556ft 82kts
30-Sep-17 09:52 34.918745 -120.455805 79 1377ft 83kts
30-Sep-17 09:53 34.920879 -120.426837 81 2106ft 86kts
30-Sep-17 09:54 34.922518 -120.397860 85 2805ft 85kts
30-Sep-17 09:55 34.922391 -120.369405 75 3434ft 89kts
30-Sep-17 09:56 34.938816 -120.351176 37 4112ft 77kts
30-Sep-17 09:57 34.953967 -120.334630 37 4740ft 69kts
30-Sep-17 09:58 34.966503 -120.319220 47 5313ft 60kts
30-Sep-17 09:59 34.973280 -120.299915 70 5763ft 63kts
30-Sep-17 10:00 34.975032 -120.277288 82 6161ft 69kts
30-Sep-17 10:01 34.975792 -120.253413 78 6558ft 70kts
30-Sep-17 10:02 34.979113 -120.230457 64 6957ft 62kts
30-Sep-17 10:03 34.987181 -120.208308 53 7215ft 72kts
30-Sep-17 10:04 34.997086 -120.186615 53 7527ft 78kts
30-Sep-17 10:05 35.009026 -120.157049 63 7513ft 112kts
30-Sep-17 10:06 35.018914 -120.119918 72 7498ft 115kts
30-Sep-17 10:07 35.028301 -120.082248 71 7498ft 116kts
30-Sep-17 10:08 35.039303 -120.044663 68 7500ft 119kts
30-Sep-17 10:09 35.051267 -120.006397 69 7497ft 120kts
30-Sep-17 10:10 35.061488 -119.968606 62 7496ft 113kts
30-Sep-17 10:11 35.072828 -119.933638 63 7497ft 108kts
30-Sep-17 10:12 35.082978 -119.899419 63 7519ft 105kts
30-Sep-17 10:13 35.093606 -119.866009 54 7529ft 105kts
30-Sep-17 10:14 35.108132 -119.834455 54 7525ft 107kts
30-Sep-17 10:15 35.122783 -119.802094 54 7521ft 110kts
30-Sep-17 10:16 35.137791 -119.768866 55 7517ft 112kts
30-Sep-17 10:17 35.152832 -119.735444 55 7491ft 111kts
30-Sep-17 10:18 35.167789 -119.702141 55 7512ft 112kts
30-Sep-17 10:19 35.182910 -119.668493 55 7511ft 112kts
30-Sep-17 10:20 35.197952 -119.634943 55 7515ft 112kts
30-Sep-17 10:21 35.212958 -119.601425 55 7509ft 109kts
30-Sep-17 10:22 35.226941 -119.569869 55 7512ft 103kts
30-Sep-17 10:23 35.240634 -119.539180 55 7515ft 103kts
30-Sep-17 10:24 35.254591 -119.508001 56 7510ft 105kts
30-Sep-17 10:25 35.268634 -119.476567 56 7511ft 105kts
30-Sep-17 10:26 35.282675 -119.445081 56 7511ft 105kts
30-Sep-17 10:27 35.296762 -119.413460 56 7511ft 105kts
30-Sep-17 10:28 35.310786 -119.381945 56 7513ft 105kts
30-Sep-17 10:29 35.324642 -119.350729 56 7512ft 103kts
30-Sep-17 10:30 35.338375 -119.319792 58 7513ft 103kts
30-Sep-17 10:31 35.353735 -119.285743 57 7488ft 131kts
30-Sep-17 10:32 35.369102 -119.250847 57 7501ft 108kts
30-Sep-17 10:33 35.382462 -119.218562 61 7495ft 106kts
30-Sep-17 10:34 35.393777 -119.185196 65 7477ft 106kts
30-Sep-17 10:35 35.399727 -119.149233 93 7192ft 114kts
30-Sep-17 10:36 35.390979 -119.113257 108 6194ft 116kts
30-Sep-17 10:37 35.379938 -119.076209 113 4941ft 114kts
30-Sep-17 10:38 35.368305 -119.040467 110 3748ft 112kts
30-Sep-17 10:39 35.365844 -119.005146 50 2788ft 95kts
30-Sep-17 10:40 35.388649 -119.002877 323 1712ft 87kts
30-Sep-17 10:41 35.405367 -119.022194 312 1214ft 79kts
30-Sep-17 10:42 35.420755 -119.040563 314 883ft 80kts
30-Sep-17 10:43 35.435333 -119.058036 313 510ft 52kts
30-Sep-17 10:44 35.440733 -119.063294 5 510ft 0kts
30-Sep-17 10:45 35.440012 -119.061201 135 510ft 31kts
30-Sep-17 10:46 35.431170 -119.050541 136 510ft 41kts
30-Sep-17 10:47 35.429915 -119.045762 38 510ft 0kts

Navigation Log

Ident Type
1. KSMX Airport
2. FLW Navaid
3. KBFL Airport